createdAt,value
2017-12-28T20:19:46.187Z,9.70
2017-12-28T20:22:13.644Z,9.07
2017-12-28T20:24:41.137Z,7.73
2017-12-28T20:27:08.609Z,9.37
2017-12-28T20:29:36.076Z,9.17
2017-12-28T20:32:03.550Z,5.27
2017-12-28T20:36:04.721Z,65.60
2017-12-28T20:38:32.484Z,55.40
2017-12-28T20:40:59.954Z,40.67
2017-12-28T20:43:27.495Z,38.10
2017-12-28T20:45:54.953Z,19.63
2017-12-28T20:48:22.639Z,22.20
2017-12-28T20:50:50.097Z,24.37
2017-12-28T20:53:17.564Z,27.83
2017-12-28T20:55:45.957Z,24.07
2017-12-28T20:58:13.554Z,20.50
2017-12-28T21:00:41.145Z,25.23
2017-12-28T21:03:08.793Z,19.57
2017-12-28T21:05:36.261Z,19.37
2017-12-28T21:08:03.728Z,22.50
2017-12-28T21:10:31.332Z,23.30
2017-12-28T21:12:58.932Z,22.10
2017-12-28T21:15:26.418Z,19.90
2017-12-28T21:17:53.875Z,17.13
2017-12-28T21:20:21.355Z,11.33
2017-12-28T21:22:48.823Z,9.60
2017-12-28T21:25:16.357Z,11.37
2017-12-28T21:27:44.126Z,10.77
2017-12-28T21:30:11.696Z,12.67
2017-12-28T21:32:39.915Z,12.23
2017-12-28T21:35:07.377Z,15.50
2017-12-28T21:37:35.136Z,13.97
2017-12-28T21:40:02.592Z,12.57
2017-12-28T21:42:30.044Z,13.80
2017-12-28T21:44:57.541Z,14.17
2017-12-28T21:47:25.017Z,7.30
2017-12-28T21:49:52.505Z,13.20
2017-12-28T21:52:20.216Z,14.50
2017-12-28T21:54:48.014Z,9.77
2017-12-28T21:57:15.629Z,14.50
2017-12-28T21:59:43.227Z,12.33
2017-12-28T22:02:10.971Z,9.43
2017-12-28T22:04:38.601Z,9.47
2017-12-28T22:07:06.109Z,10.77
2017-12-28T22:09:33.656Z,12.40
2017-12-28T22:12:01.312Z,12.53
2017-12-28T22:14:28.772Z,11.60
2017-12-28T22:16:56.269Z,8.97
2017-12-28T22:19:23.720Z,10.80
2017-12-28T22:21:51.187Z,9.00
2017-12-28T22:24:18.627Z,8.90
2017-12-28T22:26:46.104Z,9.33
2017-12-28T22:29:13.586Z,9.03
2017-12-28T22:31:41.085Z,9.13
2017-12-28T22:34:08.740Z,8.53
2017-12-28T22:36:36.248Z,8.10
2017-12-28T22:39:03.714Z,8.00
2017-12-28T22:41:31.182Z,7.97
2017-12-28T22:43:58.685Z,8.97
2017-12-28T22:46:26.158Z,11.70
2017-12-28T22:48:53.768Z,8.87
2017-12-28T22:51:21.364Z,8.10
2017-12-28T22:53:48.832Z,8.23
2017-12-28T22:56:16.484Z,7.57
2017-12-28T22:58:44.824Z,11.43
2017-12-28T23:01:12.294Z,9.07
2017-12-28T23:03:39.812Z,8.93
2017-12-28T23:06:07.353Z,7.93
2017-12-28T23:08:34.817Z,8.67
2017-12-28T23:11:02.273Z,10.60
2017-12-28T23:13:29.748Z,14.20
2017-12-28T23:15:57.343Z,7.00
2017-12-28T23:18:24.864Z,10.77
2017-12-28T23:20:52.321Z,9.87
2017-12-28T23:23:19.856Z,8.47
2017-12-28T23:25:47.477Z,6.77
2017-12-28T23:28:17.854Z,6.87
2017-12-28T23:30:45.322Z,7.33
2017-12-28T23:33:12.791Z,8.90
2017-12-28T23:35:40.520Z,7.53
2017-12-28T23:38:07.969Z,6.30
2017-12-28T23:40:35.553Z,6.77
2017-12-28T23:43:03.069Z,6.17
2017-12-28T23:45:30.656Z,7.53
2017-12-28T23:47:58.421Z,9.40
2017-12-28T23:50:26.084Z,5.53
2017-12-28T23:52:53.545Z,7.57
2017-12-28T23:55:21.029Z,11.00
2017-12-28T23:57:48.512Z,8.63
